Station WRXA2 - Wainwright, AK Image indicating link to RSS feed of recent meteorological observations for station WRXA2


Conditions at WRXA2 as of
(7:43 pm AKDT on 07/13/2024)
0343 GMT on 07/14/2024:
     

Click on the graph icon in the table below to see a time series plot of the last five days of that observation.

5-day plot - Wind Direction Wind Direction (WDIR): N ( 350 deg true )
5-day plot - Wind Speed Wind Speed (WSPD): 12 kts
5-day plot - Wind Gust Wind Gust (GST): 17 kts
5-day plot - Air Temperature Air Temperature (ATMP): 40.5 °F
5-day plot - Dew Point Dew Point (DEWP): 36.9 °F
5-day plot - Wind Chill Wind Chill (CHILL): 32.7 °F
5-day plot - Wind Speed at 10 Meters Wind Speed at 10 meters (WSPD10M): 12 kts
5-day plot - Wind Speed at 20 Meters Wind Speed at 20 meters (WSPD20M): 12 kts
5-day plot -  Wind Speed, Wind Gust and Atmospheric Pressure Combined plot of Wind Speed, Gust, and Air Pressure
Previous observations
TIME
(AKDT)
5-day plot - Wind Direction
WDIR
 
5-day plot - Wind Speed
WSPD
kts
5-day plot - Wind Gust
GST
kts
5-day plot - Wave Height
WVHT
ft
5-day plot - Dominant Wave Period
DPD
sec
5-day plot - Average Wave Period
APD
sec
5-day plot - Mean Wave Direction
MWD
 
5-day plot - Atmospheric Pressure
PRES
in
5-day plot - Pressure Tendency
PTDY
in
5-day plot - Air Temperature
ATMP
°F
5-day plot - Water Temperature
WTMP
°F
5-day plot - Dew Point
DEWP
°F
5-day plot - Salinity
SAL
psu
5-day plot - Visibility
VIS
nmi
5-day plot - Tide (above MLLW)
TIDE
ft
2024-07-13 07:33 pm N 11 16------ 40.5- 36.9---
2024-07-13 07:23 pm N 10 15------ 40.8- 37.4---
2024-07-13 07:13 pm N 11 15------ 40.6- 37.2---
2024-07-13 07:03 pm N 12 15------ 41.2- 37.6---
2024-07-13 06:53 pmNNW 11 16------ 41.5- 37.9---
2024-07-13 06:43 pm N 11 14------ 41.7- 38.1---
2024-07-13 06:33 pm N 11 15------ 42.3- 38.7---
2024-07-13 06:23 pmNNW 11 14------ 42.4- 38.8---
2024-07-13 06:13 pmNNW 10 14------ 42.8- 39.0---
2024-07-13 06:04 pm N 10 14------ 43.0- 39.0---
2024-07-13 05:53 pm N 8 11------ 43.7- 39.7---
2024-07-13 05:44 pm N 7 10------ 43.9- 39.9---
2024-07-13 05:34 pm N 8 12------ 43.7- 39.7---
2024-07-13 05:23 pm N 6 10------ 45.0- 41.0---
2024-07-13 05:13 pm N 5 8------ 45.0- 41.2---
2024-07-13 05:04 pm N 6 9------ 45.1- 41.4---
2024-07-13 04:53 pmNNE 6 10------ 45.1- 41.5---
2024-07-13 04:43 pm N 7 10------ 45.0- 41.4---
2024-07-13 04:34 pmNNE 6 9------ 44.8- 41.2---
2024-07-13 04:23 pmNNE 6 8------ 44.8- 41.2---
2024-07-13 04:13 pmNNE 5 9------ 44.6- 41.0---
2024-07-13 03:53 pm NE 5 9------ 43.7- 40.1---
2024-07-13 03:43 pm NE 6 10------ 43.3- 39.7---
2024-07-13 03:34 pm NE 6 10------ 43.0- 39.4---
2024-07-13 03:23 pm NE 6 10------ 42.6- 39.4---
2024-07-13 03:13 pm NE 8 11------ 42.4- 39.2---
2024-07-13 03:03 pm NE 6 11------ 42.6- 39.6---
2024-07-13 02:53 pm NE 6 10------ 42.3- 39.4---
2024-07-13 02:44 pm N 7 12------ 40.6- 37.6---
2024-07-13 02:34 pm N 8 12------ 40.1- 37.0---
2024-07-13 02:23 pm N 10 15------ 39.4- 36.3---
2024-07-13 02:13 pm N 10 15------ 39.4- 36.3---
2024-07-13 02:03 pm N 10 14------ 39.7- 36.7---
2024-07-13 01:54 pm N 9 14------ 40.1- 37.0---
2024-07-13 01:43 pm N 9 14------ 39.9- 36.9---
2024-07-13 01:33 pm N 11 16------ 39.6- 36.3---
2024-07-13 01:23 pm N 13 19------ 39.7- 36.5---
2024-07-13 01:14 pm N 13 20------ 40.6- 37.4---
2024-07-13 01:04 pm N 13 18------ 40.8- 37.2---
2024-07-13 12:53 pm N 12 16------ 40.8- 37.4---
2024-07-13 12:43 pm N 12 16------ 40.8- 37.2---
2024-07-13 12:33 pm N 10 16------ 41.7- 37.9---
2024-07-13 12:23 pm N 8 13------ 41.9- 38.1---
2024-07-13 12:14 pm N 7 11------ 41.9- 38.1---
2024-07-13 12:04 pmNNE 6 10------ 41.7- 37.8---
2024-07-13 11:54 amNNE 7 10------ 41.7- 37.6---
2024-07-13 11:44 amNNE 7 11------ 41.9- 37.6---
2024-07-13 11:33 amNNE 8 12------ 42.1- 37.6---
2024-07-13 11:24 am N 9 14------ 41.7- 37.2---
2024-07-13 11:14 am N 9 14------ 42.1- 37.2---
2024-07-13 11:13 am N 9 14------ 42.1- 37.2---
2024-07-13 10:53 am N 9 14------ 42.4- 37.4---
2024-07-13 10:43 amNNE 8 13------ 42.6- 37.2---
2024-07-13 10:33 amNNE 7 12------ 42.8- 37.4---
2024-07-13 10:23 am N 8 12------ 42.6- 37.2---
2024-07-13 10:13 am NE 8 13------ 42.4- 37.0---
2024-07-13 10:03 amENE 10 13------ 42.3- 37.0---
2024-07-13 09:53 amENE 10 15------ 41.9- 36.9---
2024-07-13 09:43 amENE 11 17------ 41.4- 36.5---
2024-07-13 09:33 amENE 11 16------ 41.4- 36.5---
2024-07-13 09:24 am NE 9 14------ 41.0- 36.5---
2024-07-13 09:13 amNNE 9 14------ 40.8- 36.3---
2024-07-13 09:03 amNNE 9 14------ 40.5- 36.3---
2024-07-13 08:54 amNNE 9 15------ 40.1- 36.0---
2024-07-13 08:44 amNNE 9 16------ 40.1- 36.0---
2024-07-13 08:34 amNNE 9 15------ 40.5- 36.0---
2024-07-13 08:24 amNNE 10 16------ 40.6- 36.1---
2024-07-13 08:14 amNNE 10 16------ 40.5- 36.0---
2024-07-13 08:04 am N 11 17------ 40.5- 36.0---
2024-07-13 07:54 am N 10 16------ 40.3- 36.1---
2024-07-13 07:43 am N 10 16------ 40.3- 36.1---
2024-07-13 07:33 amNNE 9 13------ 40.3- 36.1---
2024-07-13 07:23 am NE 9 15------ 40.1- 36.0---
2024-07-13 07:13 amNNE 9 15------ 39.9- 35.8---
2024-07-13 07:04 am NE 9 16------ 39.7- 35.8---
2024-07-13 06:53 amNNE 9 14------ 39.6- 35.8---
2024-07-13 06:43 amNNE 10 16------ 39.2- 35.6---
2024-07-13 06:33 am N 12 17------ 39.0- 35.4---
2024-07-13 06:24 am N 13 18------ 39.2- 35.6---
2024-07-13 06:13 am N 12 19------ 39.2- 35.6---
2024-07-13 06:04 amNNE 11 16------ 39.2- 35.6---
2024-07-13 05:53 am N 11 18------ 38.8- 35.2---
2024-07-13 05:43 amNNE 9 14------ 39.0- 35.4---
2024-07-13 05:33 amNNE 10 15------ 39.2- 35.6---
2024-07-13 05:23 amNNE 9 14------ 39.0- 35.4---
2024-07-13 05:13 amNNE 11 16------ 38.8- 35.2---
2024-07-13 05:03 am N 12 18------ 38.8- 35.2---
2024-07-13 04:53 am N 11 17------ 38.8- 35.2---
2024-07-13 04:44 am N 12 16------ 38.8- 35.2---
2024-07-13 04:33 am N 10 15------ 38.7- 35.1---
2024-07-13 04:23 amNNE 10 16------ 38.8- 35.2---
2024-07-13 04:13 amNNE 9 14------ 38.7- 35.1---
2024-07-13 04:04 am N 9 15------ 38.5- 34.9---
2024-07-13 03:54 am N 11 16------ 38.7- 35.1---
2024-07-13 03:43 am N 11 17------ 38.8- 35.2---
2024-07-13 03:33 am N 10 16------ 39.2- 35.4---
2024-07-13 03:23 am N 11 16------ 39.4- 35.6---
2024-07-13 03:13 am N 10 17------ 39.4- 35.6---
2024-07-13 03:03 am N 10 14------ 39.6- 35.6---
2024-07-13 02:53 amNNE 8 13------ 39.7- 35.6---
2024-07-13 02:43 amNNE 9 15------ 40.1- 35.6---
2024-07-13 02:33 amNNE 10 15------ 40.3- 35.6---
2024-07-13 02:23 amNNE 10 15------ 40.5- 35.8---
2024-07-13 02:13 amNNE 10 15------ 40.6- 36.0---
2024-07-13 02:03 amNNE 11 17------ 40.6- 36.0---
2024-07-13 01:53 amNNE 12 17------ 40.8- 36.0---
2024-07-13 01:43 am N 13 20------ 40.8- 36.0---
2024-07-13 01:34 am N 13 19------ 41.2- 36.1---
2024-07-13 01:23 amNNE 12 17------ 41.5- 36.5---
2024-07-13 01:13 amNNE 11 17------ 41.9- 36.9---
2024-07-13 01:04 amNNE 12 18------ 41.9- 36.9---
2024-07-13 12:53 amNNE 11 18------ 42.4- 37.0---
2024-07-13 12:43 amNNE 11 19------ 42.6- 37.2---
2024-07-13 12:33 amNNE 13 20------ 43.0- 37.2---
2024-07-13 12:23 amNNE 13 20------ 43.3- 37.6---
2024-07-13 12:13 amNNE 13 20------ 43.7- 37.9---
2024-07-13 12:04 amNNE 12 17------ 43.9- 38.1---
2024-07-12 11:54 pmNNE 13 20------ 44.1- 38.1---
2024-07-12 11:44 pm NE 12 19------ 44.4- 38.3---
2024-07-12 11:33 pm NE 11 19------ 45.1- 38.7---
2024-07-12 11:23 pm NE 12 19------ 45.1- 38.8---
2024-07-12 11:14 pmNNE 13 22------ 45.5- 39.0---
2024-07-12 11:03 pmNNE 12 21------ 45.5- 39.0---
2024-07-12 10:53 pm NE 12 20------ 45.5- 39.0---
2024-07-12 10:33 pm NE 14 22------ 45.9- 39.4---
2024-07-12 10:23 pmNNE 13 20------ 46.4- 39.7---
2024-07-12 10:13 pmNNE 14 23------ 46.8- 39.9---
2024-07-12 10:03 pmNNE 14 23------ 46.8- 39.9---
2024-07-12 09:53 pmNNE 16 23------ 46.8- 39.9---
2024-07-12 09:43 pm NE 13 21------ 47.1- 40.1---
2024-07-12 09:33 pmNNE 14 22------ 47.7- 40.3---
2024-07-12 09:23 pm NE 14 23------ 48.6- 40.6---
2024-07-12 09:13 pm NE 13 26------ 49.6- 41.2---
2024-07-12 09:03 pm NE 12 19------ 50.5- 41.5---
2024-07-12 08:53 pm NE 13 21------ 50.5- 41.7---
2024-07-12 08:44 pm NE 12 19------ 50.5- 41.5---
2024-07-12 08:34 pm NE 13 21------ 50.2- 41.4---
2024-07-12 08:24 pm NE 12 20------ 49.6- 41.2---
2024-07-12 08:13 pmNNE 13 20------ 49.6- 41.0---
2024-07-12 08:03 pm NE 13 22------ 50.2- 41.4---
2024-07-12 07:54 pm NE 13 21------ 50.0- 41.2---
2024-07-12 07:43 pm NE 13 21------ 50.2- 41.4---
2024-07-12 07:33 pmNNE 15 23------ 50.0- 41.2---
2024-07-12 07:23 pm NE 12 23------ 50.4- 41.5---
2024-07-12 07:13 pmNNE 15 23------ 49.6- 41.2---
2024-07-12 07:04 pmNNE 14 23------ 49.6- 41.4---
2024-07-12 06:53 pmNNE 15 23------ 49.8- 41.4---